»·PEaware :: N45XS KSBP-KTNP

N45XS :: KSBP-KTNP

FLIGHT INFORMATION

Flight Status: Arrived
Operator: Privately registered:
United States
More flights under this callsign
Pilot: Alexander M. (19327)
Aircraft: BEECH AIRCRAFT BARON
(BE58)
More flights by this aircraft type
Origin: KSBP San Luis Co Regl
United States
Destination: KTNP Twentynine Palms
United States
More flights between these airports :: More routes between these airports
Route: POZOE RZS DARTS PIRRO POM YUCCA
File this flight plan on PilotEdge
Remarks: Second flight on stream! twitch.tv / allaboutflight
Altitude:
(Current/Filed)
12,500ft
Speed:
(Current/Filed)
125kts
Departed: 08-Oct-18 07:19 PM
Arrived: 08-Oct-18 08:55 PM
Distance/Time
Traveled:
241nm/1:36
Distance/Time
To Go:
Arrived

Flight Plot

Page will automatically refresh every two minutes.

Flight plan parsing failed; only flown route is shown


Map Options




Map Legend


Flown Route
Filed Route
Departure Airport
Arrival Airport
Navaid (VOR, NDB)
Fix

Horizontal Profiles

Position Reports

Time Latitude Longitude Heading Altitude Ground
Speed
08-Oct-18 19:08 35.239069 -120.637076 179 199ft 0kts
08-Oct-18 19:09 35.239069 -120.637076 179 199ft 0kts
08-Oct-18 19:10 35.239069 -120.637076 179 199ft 0kts
08-Oct-18 19:11 35.239069 -120.637076 179 199ft 0kts
08-Oct-18 19:12 35.239069 -120.637076 179 199ft 0kts
08-Oct-18 19:13 35.239069 -120.637076 179 199ft 0kts
08-Oct-18 19:14 35.237035 -120.637643 215 199ft 8kts
08-Oct-18 19:15 35.237473 -120.639095 125 194ft 12kts
08-Oct-18 19:16 35.235392 -120.635467 126 204ft 11kts
08-Oct-18 19:17 35.233879 -120.632771 125 208ft 9kts
08-Oct-18 19:18 35.233239 -120.631831 288 210ft 0kts
08-Oct-18 19:19 35.233239 -120.631831 288 210ft 0kts
08-Oct-18 19:20 35.232804 -120.632691 250 208ft 10kts
08-Oct-18 19:21 35.237425 -120.640929 305 201ft 106kts
08-Oct-18 19:22 35.257904 -120.670479 339 1574ft 126kts
08-Oct-18 19:23 35.268272 -120.639994 114 2898ft 143kts
08-Oct-18 19:24 35.246231 -120.600975 134 4211ft 142kts
08-Oct-18 19:25 35.228114 -120.562474 109 5703ft 131kts
08-Oct-18 19:26 35.215258 -120.522291 107 6942ft 130kts
08-Oct-18 19:27 35.205792 -120.479462 97 7886ft 144kts
08-Oct-18 19:28 35.196759 -120.429710 98 8797ft 135kts
08-Oct-18 19:29 35.188215 -120.384786 98 9761ft 140kts
08-Oct-18 19:30 35.180467 -120.344405 99 10522ft 143kts
08-Oct-18 19:31 35.172017 -120.300448 99 11331ft 145kts
08-Oct-18 19:32 35.162196 -120.252419 117 12182ft 148kts
08-Oct-18 19:33 35.129158 -120.223573 146 12946ft 153kts
08-Oct-18 19:34 35.087647 -120.192956 147 12810ft 191kts
08-Oct-18 19:35 35.040166 -120.158051 147 12516ft 196kts
08-Oct-18 19:36 34.994973 -120.124836 147 12520ft 191kts
08-Oct-18 19:37 34.950682 -120.092339 147 12520ft 192kts
08-Oct-18 19:38 34.904696 -120.058649 147 12520ft 193kts
08-Oct-18 19:39 34.883463 -120.043108 147 12517ft 193kts
08-Oct-18 19:40 34.841067 -120.012104 147 12517ft 194kts
08-Oct-18 19:41 34.797006 -119.979921 147 12516ft 194kts
08-Oct-18 19:42 34.752312 -119.947320 147 12514ft 194kts
08-Oct-18 19:43 34.705903 -119.913570 147 12511ft 194kts
08-Oct-18 19:44 34.659711 -119.879913 147 12509ft 194kts
08-Oct-18 19:45 34.613266 -119.846162 147 12506ft 194kts
08-Oct-18 19:46 34.566988 -119.812514 147 12504ft 194kts
08-Oct-18 19:47 34.520613 -119.778966 147 12501ft 194kts
08-Oct-18 19:48 34.498857 -119.723217 102 12500ft 187kts
08-Oct-18 19:49 34.484916 -119.663201 101 12500ft 187kts
08-Oct-18 19:50 34.470668 -119.602126 101 12500ft 187kts
08-Oct-18 19:51 34.456915 -119.541670 101 12500ft 186kts
08-Oct-18 19:52 34.442976 -119.481178 101 12500ft 186kts
08-Oct-18 19:53 34.429032 -119.420886 101 12510ft 187kts
08-Oct-18 19:54 34.414910 -119.360003 101 12510ft 189kts
08-Oct-18 19:55 34.405607 -119.319984 102 12509ft 190kts
08-Oct-18 19:56 34.394979 -119.274344 102 12509ft 189kts
08-Oct-18 19:57 34.381348 -119.215917 102 12511ft 188kts
08-Oct-18 19:58 34.367676 -119.157447 102 12514ft 188kts
08-Oct-18 19:59 34.353622 -119.097497 102 12516ft 188kts
08-Oct-18 20:00 34.339363 -119.036818 102 12518ft 188kts
08-Oct-18 20:01 34.325165 -118.976439 103 12519ft 188kts
08-Oct-18 20:02 34.310806 -118.915623 103 12519ft 188kts
08-Oct-18 20:03 34.296425 -118.854880 104 12518ft 187kts
08-Oct-18 20:04 34.282162 -118.794790 105 12500ft 187kts
08-Oct-18 20:05 34.267813 -118.734530 105 12499ft 186kts
08-Oct-18 20:06 34.253781 -118.675681 105 12497ft 186kts
08-Oct-18 20:07 34.239503 -118.615933 105 12494ft 186kts
08-Oct-18 20:08 34.225326 -118.556748 105 12493ft 186kts
08-Oct-18 20:09 34.210971 -118.496959 105 12493ft 185kts
08-Oct-18 20:10 34.196595 -118.437229 105 12494ft 185kts
08-Oct-18 20:11 34.182166 -118.377401 105 12493ft 185kts
08-Oct-18 20:12 34.169050 -118.323137 105 12491ft 185kts
08-Oct-18 20:13 34.155789 -118.268869 108 12490ft 185kts
08-Oct-18 20:14 34.140596 -118.218801 109 12491ft 185kts
08-Oct-18 20:15 34.123208 -118.161895 109 12491ft 185kts
08-Oct-18 20:16 34.105427 -118.103836 109 12512ft 185kts
08-Oct-18 20:17 34.087741 -118.046125 109 12512ft 186kts
08-Oct-18 20:18 34.069746 -117.987553 109 12515ft 186kts
08-Oct-18 20:19 34.052356 -117.931063 109 12518ft 186kts
08-Oct-18 20:20 34.039455 -117.872629 67 12525ft 181kts
08-Oct-18 20:21 34.063094 -117.819393 58 12525ft 181kts
08-Oct-18 20:22 34.078679 -117.773645 85 12528ft 183kts
08-Oct-18 20:23 34.080264 -117.712255 86 12523ft 184kts
08-Oct-18 20:24 34.081753 -117.650343 86 12521ft 184kts
08-Oct-18 20:25 34.083144 -117.591387 86 12519ft 184kts
08-Oct-18 20:26 34.084549 -117.530681 86 12521ft 184kts
08-Oct-18 20:27 34.085944 -117.469098 86 12524ft 184kts
08-Oct-18 20:28 34.087313 -117.407234 86 12526ft 184kts
08-Oct-18 20:29 34.088641 -117.345875 87 12528ft 184kts
08-Oct-18 20:30 34.089880 -117.287186 87 12528ft 184kts
08-Oct-18 20:31 34.091160 -117.225227 87 12528ft 184kts
08-Oct-18 20:32 34.092395 -117.163946 87 12528ft 184kts
08-Oct-18 20:33 34.093608 -117.101980 86 12528ft 184kts
08-Oct-18 20:34 34.094780 -117.040016 86 12528ft 185kts
08-Oct-18 20:35 34.095952 -116.977535 85 12376ft 194kts
08-Oct-18 20:36 34.097152 -116.910843 85 11842ft 202kts
08-Oct-18 20:37 34.094878 -116.843071 102 11317ft 203kts
08-Oct-18 20:38 34.096108 -116.778299 77 10733ft 209kts
08-Oct-18 20:39 34.100137 -116.711251 83 9775ft 175kts
08-Oct-18 20:40 34.101317 -116.657855 83 8757ft 154kts
08-Oct-18 20:41 34.102160 -116.607545 82 7636ft 145kts
08-Oct-18 20:42 34.102970 -116.557750 83 6550ft 146kts
08-Oct-18 20:43 34.104052 -116.510536 79 5384ft 137kts
08-Oct-18 20:44 34.106392 -116.465010 81 4996ft 139kts
08-Oct-18 20:45 34.108610 -116.420973 81 5010ft 138kts
08-Oct-18 20:46 34.110634 -116.377801 81 5158ft 127kts
08-Oct-18 20:47 34.113351 -116.331494 78 6024ft 151kts
08-Oct-18 20:48 34.115621 -116.279617 83 6200ft 148kts
08-Oct-18 20:49 34.117949 -116.232063 83 6163ft 144kts
08-Oct-18 20:50 34.120548 -116.178373 84 6402ft 153kts
08-Oct-18 20:51 34.124906 -116.131087 75 5732ft 132kts
08-Oct-18 20:52 34.132323 -116.088979 76 4992ft 120kts
08-Oct-18 20:53 34.133860 -116.049178 89 3929ft 114kts
08-Oct-18 20:54 34.134006 -116.011339 89 2994ft 107kts
08-Oct-18 20:55 34.134229 -115.978406 89 2432ft 96kts
08-Oct-18 20:56 34.134394 -115.947322 90 1847ft 75kts
08-Oct-18 20:57 34.134417 -115.936339 90 1790ft 23kts
08-Oct-18 20:58 34.135256 -115.935999 270 1787ft 1kts
08-Oct-18 20:59 34.135236 -115.939227 268 1803ft 9kts
08-Oct-18 21:00 34.135523 -115.941558 3 1814ft 13kts
08-Oct-18 21:01 34.135878 -115.942746 181 1820ft 0kts
08-Oct-18 21:02 34.135878 -115.942746 181 1820ft 0kts
08-Oct-18 21:03 34.135878 -115.942746 181 1820ft 0kts
08-Oct-18 21:04 34.135878 -115.942746 181 1820ft 0kts
08-Oct-18 21:05 34.135878 -115.942746 181 1820ft 0kts

Navigation Log

Ident Type
Flight plan parsing failed, navigation log unavailable